Terminal Aerodrome Forecast
Issued by NWS Greer, SC

Home | Current Version | Previous Version | Text Only | Print | Product List | Glossary On
Versions: 1 2 3 4 5 6 7 8 9 10 11 12 13 14 15 16 17 18 19 20 21 22 23 24 25 26
000
FTUS42 KGSP 271440 AAA
TAFCLT
TAF AMD
KCLT 271440Z 2715/2812 21007KT P6SM FEW060 BKN250
     FM272000 20010G18KT P6SM BKN050
      TEMPO 2721/2801 4SM -TSRA OVC025CB
     FM280200 20006KT P6SM BKN060
     FM281000 22003KT 5SM BR SCT030=

USA.gov is the U.S. government's official web portal to all federal, state and local government web resources and services.